Kezdőlap
METAR-TAF:

METAR-TAF

Repülőterek :

Viktória-vízesés, Zimbabwe

földrajzi szélesség: 18-06S, földrajzi hosszúság: 025-51E, magasság: 1061 m

Jelenlegi meteorológiai megfigyelések

A jelentés 18 órával és 23 perccel ezelõtt készült, 12:00 UTC
Észak-északkeleti szél 5 kt, északi és kelet-délkeleti között változik
Hőmérséklet 29°C
Páratartalom 22%
Légköri nyomás 1021 hPa
Látótávolság 10 km, vagy több
felhőtlen 1500 m magasságban, és nincs gomolyfelhõ

METAR: FVFA 151200Z 03005KT 350V110 CAVOK 29/05 Q1021 NOSIG

Idő: 08:23 (06:23 UTC)

Előrejelzés

A jelentés 2 órával és 23 perccel ezelõtt készült, 04:00 UTC
Az előrejelzés 16-én 06 óra UTC és 17-én 12 óra UTC között érvényes
Északkeleti szél 8 kt
Látótávolság 10 km, vagy több
felhőtlen 1500 m magasságban, és nincs gomolyfelhõ

TAF: FVFA 160400Z 1606/1712 05008KT CAVOK

Meteorológiai megfigyelések és előrejelzések több, mint 4000 repülőtéren (METAR és TAF jelentéseket).

A térképen piros és sárga pontok jelzik az elérhető meteorológiai állomásokat.

Mozgassa az egeret a pont fölött, hogy megjelenjen az állomás neve.

Azután kattintson az időjárási megfigyelések és előrejelzések megtekintéséhez.

A térkép megváltoztatása: kattintson a fekete keresztel jelölt zöld gombra ráközelítéshez, a vonallal jelölt zöld gombra távolításhoz, vagy a zöld nyilakra a szomszédos térképek eléréséhez.


METAR-TAF: